createdAt,value
2022-11-25T00:01:50.843Z,4.45
2022-11-25T00:04:39.224Z,8.80
2022-11-25T00:07:26.199Z,3.80
2022-11-25T00:10:13.149Z,9.88
2022-11-25T00:13:00.089Z,4.97
2022-11-25T00:15:47.008Z,5.88
2022-11-25T00:18:34.357Z,6.15
2022-11-25T00:21:24.137Z,7.95
2022-11-25T00:24:14.247Z,4.10
2022-11-25T00:27:04.903Z,4.45
2022-11-25T00:29:52.003Z,7.05
2022-11-25T00:32:39.005Z,7.82
2022-11-25T00:35:25.916Z,7.60
2022-11-25T00:38:12.882Z,4.88
2022-11-25T00:41:18.632Z,4.45
2022-11-25T00:44:24.259Z,6.93
2022-11-25T00:47:16.475Z,3.20
2022-11-25T00:50:03.893Z,6.43
2022-11-25T00:52:50.828Z,7.95
2022-11-25T00:55:57.724Z,10.68
2022-11-25T00:58:45.908Z,4.28
2022-11-25T01:01:33.300Z,6.72
2022-11-25T01:04:20.342Z,6.07
2022-11-25T01:07:07.612Z,3.50
2022-11-25T01:09:54.585Z,3.40
2022-11-25T01:12:41.511Z,3.58
2022-11-25T01:15:28.397Z,6.85
2022-11-25T01:18:15.499Z,12.15
2022-11-25T01:21:23.007Z,9.48
2022-11-25T01:24:12.115Z,4.20
2022-11-25T01:26:59.042Z,5.63
2022-11-25T01:29:46.162Z,4.35
2022-11-25T01:32:33.263Z,5.32
2022-11-25T01:35:20.235Z,8.10
2022-11-25T01:38:07.148Z,5.05
2022-11-25T01:40:54.075Z,3.47
2022-11-25T01:43:41.738Z,8.82
2022-11-25T01:46:37.671Z,5.93
2022-11-25T01:49:42.253Z,6.78
2022-11-25T01:52:35.602Z,7.90
2022-11-25T01:55:26.959Z,10.38
2022-11-25T01:58:21.381Z,7.10
2022-11-25T02:01:08.504Z,7.50
2022-11-25T02:03:58.228Z,6.25
2022-11-25T02:06:54.169Z,9.52
2022-11-25T02:09:43.643Z,8.45
2022-11-25T02:12:31.872Z,4.55
2022-11-25T02:15:19.171Z,11.85
2022-11-25T02:18:06.872Z,4.55
2022-11-25T02:20:54.049Z,5.95
2022-11-25T02:23:53.720Z,9.90
2022-11-25T02:26:40.844Z,11.38
2022-11-25T02:29:28.280Z,6.55
2022-11-25T02:32:15.432Z,7.55
2022-11-25T02:35:02.532Z,5.20
2022-11-25T02:37:49.523Z,11.40
2022-11-25T02:40:58.069Z,5.35
2022-11-25T02:43:45.155Z,8.02
2022-11-25T02:46:32.489Z,5.68
2022-11-25T02:49:19.452Z,5.78
2022-11-25T02:52:06.375Z,3.92
2022-11-25T02:54:53.315Z,7.00
2022-11-25T02:57:40.182Z,7.00
2022-11-25T03:00:27.298Z,8.52
2022-11-25T03:03:14.657Z,7.65
2022-11-25T03:06:02.143Z,12.85
2022-11-25T03:08:49.501Z,11.85
2022-11-25T03:11:54.986Z,9.15
2022-11-25T03:14:41.893Z,6.90
2022-11-25T03:17:28.873Z,6.00
2022-11-25T03:20:16.128Z,6.32
2022-11-25T03:23:04.267Z,12.55
2022-11-25T03:25:51.239Z,6.35
2022-11-25T03:28:38.211Z,6.15
2022-11-25T03:31:25.150Z,6.22
2022-11-25T03:34:12.681Z,6.57
2022-11-25T03:36:59.853Z,4.63
2022-11-25T03:39:46.884Z,10.93
2022-11-25T03:42:33.873Z,6.18
2022-11-25T03:45:21.136Z,12.18
2022-11-25T03:48:08.064Z,16.35
2022-11-25T03:50:55.007Z,5.75
2022-11-25T03:53:41.936Z,8.50
2022-11-25T03:56:28.966Z,13.50
2022-11-25T03:59:15.914Z,6.60
2022-11-25T04:02:03.015Z,7.15
2022-11-25T04:04:50.104Z,8.48
2022-11-25T04:07:37.125Z,11.85
2022-11-25T04:10:24.134Z,9.30
2022-11-25T04:13:11.112Z,8.23
2022-11-25T04:15:58.212Z,15.15
2022-11-25T04:18:45.127Z,15.70
2022-11-25T04:21:32.032Z,10.93
2022-11-25T04:24:19.788Z,25.23
2022-11-25T04:27:06.888Z,62.53
2022-11-25T04:29:53.864Z,106.30
2022-11-25T04:32:40.831Z,101.80
2022-11-25T04:35:27.893Z,83.20
2022-11-25T04:38:14.956Z,45.28
2022-11-25T04:41:02.048Z,32.83
2022-11-25T04:43:48.968Z,26.25
2022-11-25T04:46:41.300Z,25.08
2022-11-25T04:49:28.199Z,23.80
2022-11-25T04:52:15.060Z,24.60
2022-11-25T04:55:01.945Z,8.98
2022-11-25T04:57:48.821Z,13.13
2022-11-25T05:00:35.732Z,16.23
2022-11-25T05:03:22.661Z,13.88
2022-11-25T05:06:09.973Z,11.10
2022-11-25T05:08:56.860Z,7.07
2022-11-25T05:11:43.763Z,10.23
2022-11-25T05:14:30.832Z,10.30
2022-11-25T05:17:23.261Z,7.13
2022-11-25T05:20:10.879Z,10.55
2022-11-25T05:22:57.743Z,6.53
2022-11-25T05:25:44.701Z,6.93
2022-11-25T05:28:32.517Z,17.17
2022-11-25T05:31:19.414Z,10.82
2022-11-25T05:34:06.516Z,22.35
2022-11-25T05:36:53.685Z,20.50
2022-11-25T05:39:40.584Z,15.38
2022-11-25T05:42:29.731Z,10.05
2022-11-25T05:45:16.731Z,9.30
2022-11-25T05:48:03.748Z,8.95
2022-11-25T05:50:50.765Z,8.93
2022-11-25T05:53:37.930Z,12.20
2022-11-25T05:56:24.955Z,5.40
2022-11-25T05:59:11.924Z,15.68
2022-11-25T06:01:58.949Z,10.00
2022-11-25T06:04:45.952Z,6.55
2022-11-25T06:07:32.901Z,7.78
2022-11-25T06:10:20.226Z,5.57
2022-11-25T06:13:08.312Z,7.80
2022-11-25T06:15:55.309Z,9.95
2022-11-25T06:18:42.946Z,7.55
2022-11-25T06:21:30.272Z,9.70
2022-11-25T06:24:17.768Z,12.52
2022-11-25T06:27:04.800Z,6.57
2022-11-25T06:29:51.777Z,6.80
2022-11-25T06:32:38.728Z,34.30
2022-11-25T06:35:25.624Z,44.45
2022-11-25T06:38:12.544Z,160.43
2022-11-25T06:41:03.888Z,148.30
2022-11-25T06:43:51.077Z,57.63
2022-11-25T06:46:38.219Z,19.88
2022-11-25T06:49:25.241Z,45.72
2022-11-25T06:52:12.132Z,72.80
2022-11-25T06:54:59.061Z,34.92
2022-11-25T06:57:45.939Z,32.92
2022-11-25T07:00:32.876Z,44.20
2022-11-25T07:03:19.763Z,21.40
2022-11-25T07:06:07.402Z,48.17
2022-11-25T07:08:54.544Z,55.53
2022-11-25T07:11:41.580Z,47.78
2022-11-25T07:14:28.520Z,107.10
2022-11-25T07:17:15.528Z,105.43
2022-11-25T07:20:02.468Z,129.88
2022-11-25T07:22:49.443Z,93.68
2022-11-25T07:25:36.469Z,106.63
2022-11-25T07:28:23.419Z,102.45
2022-11-25T07:31:27.240Z,141.40
2022-11-25T07:34:18.201Z,178.93
2022-11-25T07:37:05.127Z,77.63
2022-11-25T07:39:52.240Z,42.72
2022-11-25T07:42:39.175Z,63.17
2022-11-25T07:45:27.071Z,69.75
2022-11-25T07:48:13.939Z,107.53
2022-11-25T07:51:00.888Z,219.88
2022-11-25T07:53:49.283Z,123.20
2022-11-25T07:56:38.311Z,88.93
2022-11-25T07:59:25.470Z,162.38
2022-11-25T08:02:12.559Z,36.50
2022-11-25T08:04:59.485Z,120.43
2022-11-25T08:07:46.475Z,98.05
2022-11-25T08:10:33.460Z,112.03
2022-11-25T08:13:20.452Z,112.50
2022-11-25T08:16:08.224Z,106.50
2022-11-25T08:18:55.685Z,148.90
2022-11-25T08:21:42.943Z,187.63
2022-11-25T08:24:29.880Z,193.25
2022-11-25T08:27:16.969Z,182.75
2022-11-25T08:30:04.498Z,139.40
2022-11-25T08:32:51.892Z,150.63
2022-11-25T08:35:39.216Z,158.95
2022-11-25T08:38:26.755Z,144.88
2022-11-25T08:41:19.556Z,86.85
2022-11-25T08:44:08.519Z,174.13
2022-11-25T08:46:55.667Z,137.18
2022-11-25T08:49:43.196Z,93.78
2022-11-25T08:52:30.559Z,41.78
2022-11-25T08:55:17.588Z,31.17
2022-11-25T08:58:04.749Z,19.80
2022-11-25T09:00:51.682Z,15.88
2022-11-25T09:03:41.685Z,21.40
2022-11-25T09:06:29.372Z,25.25
2022-11-25T09:09:16.425Z,28.73
2022-11-25T09:12:03.590Z,20.52
2022-11-25T09:14:50.551Z,14.07
2022-11-25T09:17:37.575Z,15.13
2022-11-25T09:20:24.565Z,16.08
2022-11-25T09:23:11.487Z,16.40
2022-11-25T09:25:58.943Z,13.68
2022-11-25T09:28:45.880Z,10.75
2022-11-25T09:31:32.851Z,13.77
2022-11-25T09:34:19.792Z,13.35
2022-11-25T09:37:06.752Z,12.05
2022-11-25T09:39:56.103Z,11.30
2022-11-25T09:43:20.790Z,13.27
2022-11-25T09:46:50.067Z,8.75
2022-11-25T09:50:09.873Z,12.82
2022-11-25T09:53:19.710Z,10.85
2022-11-25T09:56:14.818Z,9.77
2022-11-25T09:59:18.238Z,12.88
2022-11-25T10:02:17.862Z,7.70
2022-11-25T10:05:34.486Z,9.93
2022-11-25T10:08:25.286Z,8.68
2022-11-25T10:11:41.948Z,12.90
2022-11-25T10:14:45.311Z,14.45
2022-11-25T10:17:54.095Z,10.63
2022-11-25T10:20:42.486Z,9.05
2022-11-25T10:23:35.235Z,10.35
2022-11-25T10:26:34.679Z,12.05
2022-11-25T10:29:27.652Z,7.80
2022-11-25T10:35:23.836Z,14.23
2022-11-25T10:38:20.209Z,10.43
2022-11-25T10:41:07.386Z,11.57
2022-11-25T10:43:54.508Z,10.02
2022-11-25T10:47:13.544Z,9.35
2022-11-25T10:50:16.188Z,14.10
2022-11-25T10:53:13.236Z,10.75
2022-11-25T10:56:12.527Z,11.07
2022-11-25T10:59:13.778Z,8.73
2022-11-25T11:02:22.896Z,12.60
2022-11-25T11:05:31.114Z,11.93
2022-11-25T11:08:24.592Z,27.95
2022-11-25T11:11:47.264Z,10.18
2022-11-25T11:14:34.864Z,14.00
2022-11-25T11:17:37.187Z,16.73
2022-11-25T11:20:30.031Z,18.17
2022-11-25T11:23:17.658Z,23.38
2022-11-25T11:26:06.728Z,16.20
2022-11-25T11:29:02.653Z,14.77
2022-11-25T11:31:58.590Z,14.48
2022-11-25T11:35:18.263Z,14.82
2022-11-25T11:38:30.079Z,11.88
2022-11-25T11:41:34.805Z,11.88
2022-11-25T11:45:08.143Z,13.52
2022-11-25T11:48:31.879Z,16.48
2022-11-25T11:52:02.113Z,15.15
2022-11-25T11:55:12.180Z,14.02
2022-11-25T11:58:31.141Z,16.17
2022-11-25T12:05:17.613Z,15.93
2022-11-25T12:11:43.681Z,45.42
2022-11-25T12:14:46.612Z,16.10
2022-11-25T12:17:51.955Z,14.40
2022-11-25T12:20:47.742Z,15.55
2022-11-25T12:24:14.488Z,16.40
2022-11-25T12:27:15.624Z,14.45
2022-11-25T12:30:13.903Z,15.65
2022-11-25T12:33:10.735Z,16.40
2022-11-25T12:36:16.748Z,13.68
2022-11-25T12:39:24.098Z,18.65
2022-11-25T12:42:20.560Z,15.88
2022-11-25T12:45:16.153Z,17.60
2022-11-25T12:48:03.593Z,17.02
2022-11-25T12:51:20.042Z,16.25
2022-11-25T12:54:48.303Z,20.00
2022-11-25T12:57:59.505Z,20.27
2022-11-25T13:01:07.087Z,18.50
2022-11-25T13:04:15.562Z,16.70
2022-11-25T13:07:27.438Z,17.25
2022-11-25T13:10:43.331Z,18.13
2022-11-25T13:13:58.531Z,17.63
2022-11-25T13:16:48.633Z,15.85
2022-11-25T13:19:37.264Z,18.80
2022-11-25T13:22:29.816Z,17.85
2022-11-25T13:25:26.137Z,18.17
2022-11-25T13:28:34.601Z,18.65
2022-11-25T13:31:34.489Z,23.13
2022-11-25T13:34:41.603Z,20.05
2022-11-25T13:37:37.062Z,16.65
2022-11-25T13:40:23.996Z,16.13
2022-11-25T13:43:23.316Z,16.15
2022-11-25T13:46:53.156Z,21.88
2022-11-25T13:49:52.977Z,20.23
2022-11-25T13:52:43.454Z,21.65
2022-11-25T13:55:42.087Z,22.15
2022-11-25T13:58:33.118Z,22.77
2022-11-25T14:01:29.476Z,25.20
2022-11-25T14:04:24.334Z,19.60
2022-11-25T14:07:30.373Z,23.35
2022-11-25T14:10:45.008Z,22.48
2022-11-25T14:13:56.695Z,25.80
2022-11-25T14:17:18.732Z,30.83
2022-11-25T14:20:24.947Z,26.42
2022-11-25T14:23:47.072Z,27.77
2022-11-25T14:26:49.785Z,28.42
2022-11-25T14:29:55.160Z,30.35
2022-11-25T14:32:57.639Z,31.92
2022-11-25T14:35:53.947Z,29.92
2022-11-25T14:38:49.263Z,30.73
2022-11-25T14:41:58.199Z,28.77
2022-11-25T14:44:49.369Z,37.15
2022-11-25T14:47:39.422Z,31.88
2022-11-25T14:50:34.641Z,28.23
2022-11-25T14:53:23.841Z,40.33
2022-11-25T14:56:12.946Z,32.80
2022-11-25T14:59:01.155Z,38.40
2022-11-25T15:01:54.111Z,40.00
2022-11-25T15:04:41.608Z,34.05
2022-11-25T15:07:31.282Z,40.28
2022-11-25T15:10:42.458Z,32.63
2022-11-25T15:13:39.405Z,36.45
2022-11-25T15:16:33.668Z,125.20
2022-11-25T15:19:25.303Z,57.63
2022-11-25T15:22:23.389Z,51.38
2022-11-25T15:25:15.352Z,43.92
2022-11-25T15:28:02.496Z,52.38
2022-11-25T15:30:57.720Z,53.40
2022-11-25T15:33:45.080Z,57.83
2022-11-25T15:36:32.104Z,63.15
2022-11-25T15:39:27.768Z,61.17
2022-11-25T15:42:21.968Z,92.63
2022-11-25T15:45:20.239Z,83.82
2022-11-25T15:48:12.482Z,55.40
2022-11-25T15:51:21.220Z,122.05
2022-11-25T15:54:19.208Z,64.88
2022-11-25T15:57:34.824Z,104.95
2022-11-25T16:00:23.305Z,79.22
2022-11-25T16:03:20.001Z,73.60
2022-11-25T16:06:26.904Z,144.55
2022-11-25T16:09:20.874Z,126.10
2022-11-25T16:12:17.707Z,168.27
2022-11-25T16:15:05.186Z,88.10
2022-11-25T16:17:56.736Z,114.72
2022-11-25T16:20:56.863Z,79.55
2022-11-25T16:23:55.018Z,81.28
2022-11-25T16:26:56.646Z,118.65
2022-11-25T16:30:17.549Z,61.65
2022-11-25T16:33:09.825Z,64.05
2022-11-25T16:35:56.713Z,61.00
2022-11-25T16:38:43.709Z,49.58
2022-11-25T16:41:31.247Z,86.35
2022-11-25T16:44:21.381Z,99.32
2022-11-25T16:47:10.671Z,63.58
2022-11-25T16:49:57.617Z,95.13
2022-11-25T16:52:45.029Z,48.38
2022-11-25T16:55:32.145Z,51.47
2022-11-25T16:58:22.719Z,46.47
2022-11-25T17:01:14.576Z,58.75
2022-11-25T17:04:01.526Z,60.00
2022-11-25T17:07:16.519Z,104.38
2022-11-25T17:09:55.688Z,47.30
2022-11-25T17:12:44.769Z,106.25
2022-11-25T17:15:36.874Z,59.22
2022-11-25T17:18:30.977Z,82.35
2022-11-25T17:21:17.996Z,196.15
2022-11-25T17:24:17.372Z,214.27
2022-11-25T17:27:05.728Z,163.10
2022-11-25T17:29:54.343Z,138.48
2022-11-25T17:32:41.265Z,162.48
2022-11-25T17:35:28.222Z,116.28
2022-11-25T17:38:20.077Z,90.72
2022-11-25T17:41:14.500Z,184.48
2022-11-25T17:44:01.411Z,188.68
2022-11-25T17:46:48.407Z,109.90
2022-11-25T17:49:35.321Z,49.78
2022-11-25T17:52:22.242Z,55.92
2022-11-25T17:55:09.817Z,55.03
2022-11-25T17:57:57.083Z,35.05
2022-11-25T18:00:44.915Z,36.65
2022-11-25T18:03:31.814Z,45.42
2022-11-25T18:06:19.053Z,72.00
2022-11-25T18:09:06.330Z,38.53
2022-11-25T18:11:56.348Z,75.30
2022-11-25T18:14:44.746Z,34.05
2022-11-25T18:17:31.648Z,56.58
2022-11-25T18:20:26.057Z,76.15
2022-11-25T18:23:12.954Z,57.13
2022-11-25T18:26:01.934Z,93.28
2022-11-25T18:28:48.912Z,100.97
2022-11-25T18:31:35.886Z,50.50
2022-11-25T18:34:24.610Z,98.13
2022-11-25T18:37:12.287Z,93.15
2022-11-25T18:39:59.176Z,48.28
2022-11-25T18:42:50.272Z,39.38
2022-11-25T18:45:38.704Z,34.63
2022-11-25T18:48:26.863Z,32.65
2022-11-25T18:51:14.929Z,27.65
2022-11-25T18:54:01.858Z,28.70
2022-11-25T18:56:52.133Z,31.85
2022-11-25T18:59:39.465Z,30.30
2022-11-25T19:02:26.604Z,29.90
2022-11-25T19:05:18.920Z,33.70
2022-11-25T19:08:05.765Z,32.20
2022-11-25T19:10:52.864Z,33.05
2022-11-25T19:13:39.840Z,29.77
2022-11-25T19:16:28.033Z,37.28
2022-11-25T19:19:17.146Z,40.83
2022-11-25T19:22:11.367Z,43.60
2022-11-25T19:24:59.220Z,44.58
2022-11-25T19:27:54.240Z,47.10
2022-11-25T19:30:41.315Z,50.53
2022-11-25T19:33:32.833Z,62.03
2022-11-25T19:36:25.518Z,63.38
2022-11-25T19:39:16.944Z,58.67
2022-11-25T19:42:03.961Z,64.97
2022-11-25T19:44:50.949Z,64.55
2022-11-25T19:47:37.965Z,73.15
2022-11-25T19:50:28.309Z,83.35
2022-11-25T19:53:21.675Z,62.00
2022-11-25T19:56:16.494Z,83.38
2022-11-25T19:59:03.617Z,68.22
2022-11-25T20:01:50.858Z,69.60
2022-11-25T20:04:40.844Z,58.67
2022-11-25T20:07:29.513Z,65.47
2022-11-25T20:10:22.843Z,60.58
2022-11-25T20:13:09.932Z,63.05
2022-11-25T20:15:58.564Z,70.82
2022-11-25T20:18:46.253Z,64.28
2022-11-25T20:21:40.591Z,60.20
2022-11-25T20:24:27.576Z,60.60
2022-11-25T20:27:15.251Z,58.10
2022-11-25T20:30:02.724Z,59.95
2022-11-25T20:32:49.704Z,58.35
2022-11-25T20:35:36.975Z,52.63
2022-11-25T20:38:26.522Z,54.20
2022-11-25T20:41:14.446Z,56.08
2022-11-25T20:44:01.446Z,48.53
2022-11-25T20:46:48.360Z,43.22
2022-11-25T20:49:35.607Z,42.47
2022-11-25T20:52:31.301Z,41.67
2022-11-25T20:55:23.521Z,41.17
2022-11-25T20:58:20.537Z,31.60
2022-11-25T21:01:07.866Z,32.70
2022-11-25T21:03:55.009Z,27.95
2022-11-25T21:06:41.935Z,28.13
2022-11-25T21:09:32.690Z,28.85
2022-11-25T21:12:19.865Z,23.95
2022-11-25T21:15:18.507Z,29.23
2022-11-25T21:18:05.605Z,27.80
2022-11-25T21:20:55.382Z,27.52
2022-11-25T21:23:43.681Z,32.05
2022-11-25T21:26:31.976Z,36.88
2022-11-25T21:29:18.957Z,37.78
2022-11-25T21:32:21.717Z,31.35
2022-11-25T21:35:11.042Z,24.20
2022-11-25T21:37:58.919Z,26.08
2022-11-25T21:40:49.138Z,30.05
2022-11-25T21:43:43.814Z,29.10
2022-11-25T21:46:30.735Z,22.92
2022-11-25T21:49:17.702Z,23.35
2022-11-25T21:52:04.851Z,27.27
2022-11-25T21:54:51.845Z,37.22
2022-11-25T21:57:39.287Z,32.97
2022-11-25T22:00:26.482Z,36.25
2022-11-25T22:03:18.142Z,28.88
2022-11-25T22:06:30.047Z,35.30
2022-11-25T22:09:17.471Z,40.20
2022-11-25T22:12:05.300Z,36.10
2022-11-25T22:14:52.600Z,30.67
2022-11-25T22:17:39.710Z,31.60
2022-11-25T22:20:40.429Z,31.67
2022-11-25T22:23:27.939Z,33.05
2022-11-25T22:26:19.675Z,26.35
2022-11-25T22:29:13.306Z,25.17
2022-11-25T22:32:00.596Z,22.33
2022-11-25T22:34:47.580Z,24.05
2022-11-25T22:37:34.960Z,26.45
2022-11-25T22:40:23.625Z,24.33
2022-11-25T22:43:18.085Z,21.73
2022-11-25T22:46:05.443Z,25.52
2022-11-25T22:48:52.432Z,20.83
2022-11-25T22:51:39.379Z,27.88
2022-11-25T22:54:26.399Z,19.95
2022-11-25T22:57:13.374Z,24.95
2022-11-25T23:00:00.320Z,21.88
2022-11-25T23:02:48.839Z,25.02
2022-11-25T23:05:37.290Z,26.33
2022-11-25T23:08:27.086Z,25.92
2022-11-25T23:11:17.577Z,24.80
2022-11-25T23:14:04.499Z,27.25
2022-11-25T23:16:51.733Z,20.98
2022-11-25T23:19:38.757Z,19.98
2022-11-25T23:22:25.662Z,18.48
2022-11-25T23:25:14.932Z,20.92
2022-11-25T23:28:01.855Z,24.85
2022-11-25T23:30:57.083Z,18.92
2022-11-25T23:33:46.699Z,21.27
2022-11-25T23:36:46.373Z,22.98
2022-11-25T23:39:33.446Z,16.10
2022-11-25T23:42:21.024Z,14.00
2022-11-25T23:45:12.673Z,15.48
2022-11-25T23:47:59.588Z,15.90
2022-11-25T23:50:47.248Z,12.38
2022-11-25T23:53:37.876Z,12.00
2022-11-25T23:56:26.962Z,13.80
2022-11-25T23:59:14.944Z,12.30
